Accueil
METAR-TAF:

METAR-TAF

Aéroports :

Aéroport international de Pohnpei

Ponape, Micronésie

latitude: 06-59N, longitude: 158-12E, altitude: 2 m

Observation

Le bulletin a été fait il y a 6 heures et 24 minutes, à 04:54 UTC
Vent 7 kt de est/nord-est
Température 32°C
Humidité 67%
Pression 1009 hPa
Visibilité: 24.1 km
Nuages épars à une hauteur de 1800 ft
Nuages fragmentés à une hauteur de 13000 ft
Nuages fragmentés à une hauteur de 30000 ft

METAR: PTPN 200454Z 07007KT 15SM SCT018 BKN130 BKN300 32/25 A2980 RMK LAST

Heure: 22:18 (11:18 UTC)

Prévision

Le bulletin a été fait il y a 11 heures et 46 minutes, à 23:32 UTC
Prévision valable du 20 à 00 UTC au 20 à 24 UTC
Vent 10 kt de est/nord-est
Visibilité: 10 km
Nuages épars à une hauteur de 1800 ft
Nuages fragmentés à une hauteur de 13000 ft
Nuages fragmentés à une hauteur de 30000 ft

TAF: PTPN 192332Z 2000/2024 07010KT P6SM SCT018 BKN130 BKN300

Observations et prévisions météorologiques de plus de 4000 aéroports (messages METAR et TAF).

Les stations disponibles sont représentées par des disques jaunes et rouges sur la carte.

Passer la souris dessus pour voir le nom de la station.

Cliquer dessus pour voir les observations et prévisions météorologiques.

Pour changer de carte: cliquez sur les boutons verts avec une croix noire pour zoomer, sur le bouton vert avec un tiret pour effectuer un zoom arrière, ou sur les flèches vertes pour les cartes adjacentes.


METAR-TAF: